Home > Products > Valid Products > MTR

000
SAUS41 KLWX 050300
MTRRYT
METAR KRYT 050253Z AUTO 06004KT 8SM SCT019 OVC028 24/20 A3017 RMK
AO2 SLP200 T02390200 51022 $





000
SAUS41 KLWX 050300
MTRRYT
METAR KRYT 050253Z AUTO 06004KT 8SM SCT019 OVC028 24/20 A3017 RMK
AO2 SLP200 T02390200 51022 $





000
SAUS41 KLWX 050258
MTRDMH
METAR KDMH 050254Z AUTO 26/21 A3015 RMK AO1 SLP210 T02560206 51024





000
SAUS41 KLWX 050258
MTRDMH
METAR KDMH 050254Z AUTO 26/21 A3015 RMK AO1 SLP210 T02560206 51024





000
SAUS41 KLWX 050255
MTRNAK
METAR KNAK 050254Z AUTO 08008KT 7SM FEW023 25/22 A3014 RMK AO2
SLP208 T02500217 51025





000
SAUS41 KLWX 050222
MTRRYT
SPECI KRYT 050221Z AUTO 00000KT 8SM BKN021 BKN028 24/20 A3016 RMK
AO2 $





000
SAUS41 KLWX 050200
MTRRYT
METAR KRYT 050153Z AUTO 00000KT 9SM SCT085 23/19 A3015 RMK AO2
SLP197 T02330194 $





000
SAUS41 KLWX 050158
MTRDMH
METAR KDMH 050154Z AUTO 26/21 A3014 RMK AO1 SLP206 T02610206





000
SAUS41 KLWX 050158
MTRDMH
METAR KDMH 050154Z AUTO 26/21 A3014 RMK AO1 SLP206 T02610206





000
SAUS41 KLWX 050155
MTRNAK
METAR KNAK 050154Z AUTO 09010KT 7SM FEW023 26/22 A3013 RMK AO2
SLP203 T02560222





000
SAUS41 KLWX 050110
MTRNAK
SPECI KNAK 050109Z AUTO 09011KT 7SM SCT027 26/22 A3010 RMK AO2
T02610222





000
SAUS41 KLWX 050110
MTRNAK
SPECI KNAK 050109Z AUTO 09011KT 7SM SCT027 26/22 A3010 RMK AO2
T02610222





000
SAUS41 KLWX 050100
MTRRYT
METAR KRYT 050053Z AUTO 00000KT 8SM CLR 23/20 A3013 RMK AO2 SLP188
T02330200 $





000
SAUS41 KLWX 050058
MTRDMH
METAR KDMH 050054Z AUTO 27/22 A3011 RMK AO1 SLP195 T02670217





000
SAUS41 KLWX 050058
MTRDMH
METAR KDMH 050054Z AUTO 27/22 A3011 RMK AO1 SLP195 T02670217





000
SAUS41 KLWX 050055
MTRNAK
METAR KNAK 050054Z AUTO 09011KT 8SM BKN027 27/22 A3010 RMK AO2
SLP193 T02670222





000
SAUS41 KLWX 050000
MTRRYT
METAR KRYT 042353Z AUTO 00000KT 10SM FEW050 26/19 A3010 RMK AO2
SLP180 60000 T02560194 10311 20256 53018 $





000
SAUS41 KLWX 050000
MTRRYT
METAR KRYT 042353Z AUTO 00000KT 10SM FEW050 26/19 A3010 RMK AO2
SLP180 60000 T02560194 10311 20256 53018 $





000
SAUS41 KLWX 042358
MTRDMH
METAR KDMH 042354Z AUTO 27/21 A3008 RMK AO1 SLP186 T02720211 10333
20272 51021





000
SAUS41 KLWX 042358
MTRDMH
METAR KDMH 042354Z AUTO 27/21 A3008 RMK AO1 SLP186 T02720211 10333
20272 51021





000
SAUS41 KLWX 042355
MTRNAK
METAR KNAK 042354Z AUTO 11011G18KT 8SM CLR 27/22 A3007 RMK AO2
SLP183 T02720217 10317 20272 53019





000
SAUS41 KLWX 042355
MTRNAK
METAR KNAK 042354Z AUTO 11011G18KT 8SM CLR 27/22 A3007 RMK AO2
SLP183 T02720217 10317 20272 53019





000
SAUS41 KLWX 042300
MTRRYT
METAR KRYT 042253Z AUTO 04004KT 9SM CLR 27/19 A3007 RMK AO2 SLP171
T02720194 $





000
SAUS41 KLWX 042258
MTRDMH
METAR KDMH 042254Z AUTO 28/19 A3006 RMK AO1 SLP180 T02830194





000
SAUS41 KLWX 042258
MTRDMH
METAR KDMH 042254Z AUTO 28/19 A3006 RMK AO1 SLP180 T02830194





000
SAUS41 KLWX 042255
MTRNAK
METAR KNAK 042254Z AUTO 09008KT 6SM HZ CLR 28/22 A3005 RMK AO2
SLP176 T02830222





000
SAUS41 KLWX 042200
MTRRYT
METAR KRYT 042153Z AUTO 00000KT 10SM CLR 29/18 A3006 RMK AO2 SLP167
T02940183 $





000
SAUS41 KLWX 042158
MTRDMH
METAR KDMH 042154Z AUTO 30/19 A3005 RMK AO1 SLP175 T03000189





000
SAUS41 KLWX 042156
MTRNAK
METAR KNAK 042154Z AUTO 08009KT 7SM FEW055 30/21 A3003 RMK AO2
SLP170 T03000206





000
SAUS41 KLWX 042100
MTRRYT
METAR KRYT 042053Z AUTO VRB03KT 10SM CLR 29/19 A3005 RMK AO2
RAB01E11 SLP160 P0000 60000 T02940189 56003 $





000
SAUS41 KLWX 042058
MTRDMH
METAR KDMH 042054Z AUTO 32/18 A3002 RMK AO1 SLP165 T03220183 55001





000
SAUS41 KLWX 042055
MTRNAK
METAR KNAK 042054Z AUTO 07008KT 6SM HZ CLR 31/21 A3001 RMK AO2
SLP164 T03110206 56001





000
SAUS41 KLWX 042000
MTRRYT
METAR KRYT 041953Z AUTO 00000KT 9SM CLR 30/20 A3005 RMK AO2 SLP161
T03000200 $





000
SAUS41 KLWX 042000
MTRRYT
METAR KRYT 041953Z AUTO 00000KT 9SM CLR 30/20 A3005 RMK AO2 SLP161
T03000200 $





000
SAUS41 KLWX 041958
MTRDMH
METAR KDMH 041954Z AUTO 33/19 A3001 RMK AO1 SLP163 T03280189





000
SAUS41 KLWX 041955
MTRNAK
METAR KNAK 041954Z AUTO 06007KT 6SM HZ CLR 31/21 A3001 RMK AO2
SLP164 T03110211





000
SAUS41 KLWX 041900
MTRRYT
METAR KRYT 041853Z AUTO VRB06KT 10SM CLR 31/19 A3005 RMK AO2 SLP159
T03060194 $





000
SAUS41 KLWX 041900
MTRRYT
METAR KRYT 041853Z AUTO VRB06KT 10SM CLR 31/19 A3005 RMK AO2 SLP159
T03060194 $





000
SAUS41 KLWX 041858
MTRDMH
METAR KDMH 041854Z AUTO 33/18 A3001 RMK AO1 SLP163 T03280183





000
SAUS41 KLWX 041855
MTRNAK
METAR KNAK 041854Z AUTO 09007KT 050V130 6SM HZ CLR 31/22 A3001 RMK
AO2 SLP163 T03110217





000
SAUS41 KLWX 041855
MTRNAK
METAR KNAK 041854Z AUTO 09007KT 050V130 6SM HZ CLR 31/22 A3001 RMK
AO2 SLP163 T03110217





000
SAUS41 KLWX 041800
MTRRYT
METAR KRYT 041753Z AUTO 04006KT 10SM CLR 30/19 A3006 RMK AO2 SLP162
T03000194 10306 20200 58001 $





000
SAUS41 KLWX 041758
MTRDMH
METAR KDMH 041754Z AUTO 32/19 A3002 RMK AO1 SLP166 T03220194 10322
20261 50001





000
SAUS41 KLWX 041758
MTRDMH
METAR KDMH 041754Z AUTO 32/19 A3002 RMK AO1 SLP166 T03220194 10322
20261 50001





000
SAUS41 KLWX 041755
MTRNAK
METAR KNAK 041754Z AUTO VRB04KT 6SM HZ CLR 31/23 A3001 RMK AO2
SLP165 T03060228 10311 20250 58001





000
SAUS41 KLWX 041755
MTRNAK
METAR KNAK 041754Z AUTO VRB04KT 6SM HZ CLR 31/23 A3001 RMK AO2
SLP165 T03060228 10311 20250 58001





000
SAUS41 KLWX 041700
MTRRYT
METAR KRYT 041653Z AUTO 05004KT 10SM CLR 29/19 A3006 RMK AO2 SLP164
T02940194 $





000
SAUS41 KLWX 041700
MTRRYT
METAR KRYT 041653Z AUTO 05004KT 10SM CLR 29/19 A3006 RMK AO2 SLP164
T02940194 $





000
SAUS41 KLWX 041658
MTRDMH
METAR KDMH 041654Z AUTO 32/19 A3003 RMK AO1 SLP168 T03220189





000
SAUS41 KLWX 041655
MTRNAK
METAR KNAK 041654Z AUTO 07005KT 5SM HZ SCT080 29/23 A3003 RMK AO2
SLP169 T02890228





000
SAUS41 KLWX 041600
MTRRYT
METAR KRYT 041553Z AUTO VRB03KT 9SM CLR 28/21 A3007 RMK AO2 SLP168
T02830206 $





000
SAUS41 KLWX 041558
MTRDMH
METAR KDMH 041554Z AUTO 32/19 A3003 RMK AO1 SLP169 T03170194





000
SAUS41 KLWX 041555
MTRNAK
METAR KNAK 041554Z AUTO 05004KT 6SM HZ FEW075 FEW090 29/22 A3003 RMK
AO2 SLP170 T02890222





000
SAUS41 KLWX 041500
MTRRYT
METAR KRYT 041453Z AUTO VRB03KT 8SM CLR 27/20 A3006 RMK AO2 SLP166
T02720200 51009 $





000
SAUS41 KLWX 041458
MTRDMH
METAR KDMH 041454Z AUTO 30/20 A3002 RMK AO1 SLP165 T03000200 53012





000
SAUS41 KLWX 041455
MTRNAK
METAR KNAK 041454Z AUTO 05005KT 5SM HZ FEW070 SCT090 28/22 A3002 RMK
AO2 SLP166 T02780222 53015





000
SAUS41 KLWX 041400
MTRRYT
METAR KRYT 041353Z AUTO 05004KT 8SM CLR 26/20 A3005 RMK AO2 SLP162
T02610200 $





000
SAUS41 KLWX 041400
MTRRYT
METAR KRYT 041353Z AUTO 05004KT 8SM CLR 26/20 A3005 RMK AO2 SLP162
T02610200 $





000
SAUS41 KLWX 041358
MTRDMH
METAR KDMH 041354Z AUTO 28/20 A3001 RMK AO1 SLP161 T02830200





000
SAUS41 KLWX 041355
MTRNAK
METAR KNAK 041354Z AUTO VRB05KT 5SM HZ CLR 27/22 A3000 RMK AO2
SLP159 T02720222





000
SAUS41 KLWX 041355
MTRNAK
METAR KNAK 041354Z AUTO VRB05KT 5SM HZ CLR 27/22 A3000 RMK AO2
SLP159 T02720222





000
SAUS41 KLWX 041300
MTRRYT
METAR KRYT 041253Z AUTO 00000KT 7SM CLR 24/20 A3004 RMK AO2 SLP159
T02390200 $





000
SAUS41 KLWX 041258
MTRDMH
METAR KDMH 041254Z AUTO 27/19 A2999 RMK AO1 SLP156 T02720194





000
SAUS41 KLWX 041255
MTRNAK
METAR KNAK 041254Z AUTO 01003KT 6SM HZ CLR 27/23 A2998 RMK AO2
SLP154 T02670228





000
SAUS41 KLWX 041255
MTRNAK
METAR KNAK 041254Z AUTO 01003KT 6SM HZ CLR 27/23 A2998 RMK AO2
SLP154 T02670228





000
SAUS41 KLWX 041200
MTRRYT
METAR KRYT 041153Z AUTO 00000KT 4SM BR CLR 20/19 A3003 RMK AO2
SLP157 T02000189 10211 20194 53021 $





000
SAUS41 KLWX 041200
MTRRYT
METAR KRYT 041153Z AUTO 00000KT 4SM BR CLR 20/19 A3003 RMK AO2
SLP157 T02000189 10211 20194 53021 $





000
SAUS41 KLWX 041158
MTRDMH
METAR KDMH 041154Z AUTO 26/19 A2998 RMK AO1 SLP153 T02610194 10283
20256 53023





000
SAUS41 KLWX 041158
MTRDMH
METAR KDMH 041154Z AUTO 26/19 A2998 RMK AO1 SLP153 T02610194 10283
20256 53023





000
SAUS41 KLWX 041155
MTRNAK
METAR KNAK 041154Z AUTO 34004KT 5SM HZ CLR 25/22 A2997 RMK AO2
SLP151 T02500222 10256 20239 53024





000
SAUS41 KLWX 041100
MTRRYT
METAR KRYT 041053Z AUTO 00000KT 2SM BR CLR 19/18 A3001 RMK AO2
SLP149 T01940183 $





000
SAUS41 KLWX 041058
MTRDMH
METAR KDMH 041054Z AUTO 26/19 A2996 RMK AO1 SLP144 T02610189





000
SAUS41 KLWX 041058
MTRDMH
METAR KDMH 041054Z AUTO 26/19 A2996 RMK AO1 SLP144 T02610189





000
SAUS41 KLWX 041055
MTRNAK
METAR KNAK 041054Z AUTO 00000KT 5SM HZ CLR 25/22 A2994 RMK AO2
SLP141 T02500217





000
SAUS41 KLWX 041051
MTRRYT
SPECI KRYT 041044Z AUTO 00000KT 2SM BR CLR 19/18 A3000 RMK AO2 $





000
SAUS41 KLWX 041000
MTRRYT
METAR KRYT 040953Z AUTO 00000KT 3SM BR CLR 19/18 A2998 RMK AO2
SLP140 T01940183 $





000
SAUS41 KLWX 040958
MTRDMH
METAR KDMH 040954Z AUTO 26/19 A2994 RMK AO1 SLP137 T02610194





000
SAUS41 KLWX 040955
MTRNAK
METAR KNAK 040954Z AUTO 35004KT 7SM CLR 25/22 A2992 RMK AO2 SLP133
T02500217





000
SAUS41 KLWX 040900
MTRRYT
METAR KRYT 040853Z AUTO 00000KT 4SM BR CLR 20/19 A2997 RMK AO2
SLP134 T02000189 53005 $





000
SAUS41 KLWX 040900
MTRRYT
METAR KRYT 040853Z AUTO 00000KT 4SM BR CLR 20/19 A2997 RMK AO2
SLP134 T02000189 53005 $





000
SAUS41 KLWX 040858
MTRDMH
METAR KDMH 040854Z AUTO 26/19 A2992 RMK AO1 SLP130 T02610194 53007





000
SAUS41 KLWX 040858
MTRDMH
METAR KDMH 040854Z AUTO 26/19 A2992 RMK AO1 SLP130 T02610194 53007





000
SAUS41 KLWX 040855
MTRNAK
METAR KNAK 040854Z AUTO 34005KT 6SM BR CLR 25/23 A2990 RMK AO2
SLP126 T02500228 53005





000
SAUS41 KLWX 040800
MTRRYT
METAR KRYT 040753Z AUTO 00000KT 4SM BR CLR 20/19 A2995 RMK AO2
SLP128 T02000189 $





000
SAUS41 KLWX 040758
MTRDMH
METAR KDMH 040754Z AUTO 27/19 A2991 RMK AO1 SLP127 T02720194





000
SAUS41 KLWX 040755
MTRNAK
METAR KNAK 040754Z AUTO 31003KT 6SM BR CLR 25/23 A2989 RMK AO2
SLP125 T02500228





000
SAUS41 KLWX 040755
MTRNAK
METAR KNAK 040754Z AUTO 31003KT 6SM BR CLR 25/23 A2989 RMK AO2
SLP125 T02500228





000
SAUS41 KLWX 040700
MTRRYT
METAR KRYT 040653Z AUTO 00000KT 6SM BR CLR 21/19 A2995 RMK AO2
SLP126 T02110189 $





000
SAUS41 KLWX 040700
MTRRYT
METAR KRYT 040653Z AUTO 00000KT 6SM BR CLR 21/19 A2995 RMK AO2
SLP126 T02110189 $





000
SAUS41 KLWX 040658
MTRDMH
METAR KDMH 040654Z AUTO 28/19 A2990 RMK AO1 SLP125 T02780194





000
SAUS41 KLWX 040658
MTRDMH
METAR KDMH 040654Z AUTO 28/19 A2990 RMK AO1 SLP125 T02780194





000
SAUS41 KLWX 040655
MTRNAK
METAR KNAK 040654Z AUTO 00000KT 6SM HZ CLR 24/22 A2988 RMK AO2
SLP120 T02440217





000
SAUS41 KLWX 040655
MTRNAK
METAR KNAK 040654Z AUTO 00000KT 6SM HZ CLR 24/22 A2988 RMK AO2
SLP120 T02440217





000
SAUS41 KLWX 040600
MTRRYT
METAR KRYT 040553Z AUTO 00000KT 4SM BR CLR 21/19 A2995 RMK AO2
SLP127 T02060194 10256 20206 51006 $





000
SAUS41 KLWX 040600
MTRRYT
METAR KRYT 040553Z AUTO 00000KT 4SM BR CLR 21/19 A2995 RMK AO2
SLP127 T02060194 10256 20206 51006 $





000
SAUS41 KLWX 040558
MTRDMH
METAR KDMH 040554Z AUTO 28/19 A2990 RMK AO1 SLP123 T02780194 10311
20278 50003





000
SAUS41 KLWX 040558
MTRDMH
METAR KDMH 040554Z AUTO 28/19 A2990 RMK AO1 SLP123 T02780194 10311
20278 50003





000
SAUS41 KLWX 040555
MTRNAK
METAR KNAK 040554Z AUTO 30003KT 6SM BR CLR 25/23 A2988 RMK AO2
SLP121 T02500228 10283 20250 50001





000
SAUS41 KLWX 040555
MTRNAK
METAR KNAK 040554Z AUTO 30003KT 6SM BR CLR 25/23 A2988 RMK AO2
SLP121 T02500228 10283 20250 50001





000
SAUS41 KLWX 040500
MTRRYT
METAR KRYT 040453Z AUTO 00000KT 5SM BR CLR 21/19 A2995 RMK AO2
SLP127 T02110194 403170200 $





000
SAUS41 KLWX 040500
MTRRYT
METAR KRYT 040453Z AUTO 00000KT 5SM BR CLR 21/19 A2995 RMK AO2
SLP127 T02110194 403170200 $





000
SAUS41 KLWX 040459
MTRDMH
METAR KDMH 040454Z AUTO 28/20 A2990 RMK AO1 SLP125 T02830200
403390239





000
SAUS41 KLWX 040456
MTRNAK
METAR KNAK 040454Z AUTO 00000KT 6SM HZ CLR 25/22 A2989 RMK AO2
SLP122 T02500222 403110222





000
SAUS41 KLWX 040400
MTRRYT
METAR KRYT 040353Z AUTO 00000KT 4SM BR CLR 21/19 A2994 RMK AO2
SLP124 T02110194 $





000
SAUS41 KLWX 040400
MTRRYT
METAR KRYT 040353Z AUTO 00000KT 4SM BR CLR 21/19 A2994 RMK AO2
SLP124 T02110194 $





000
SAUS41 KLWX 040358
MTRDMH
METAR KDMH 040354Z AUTO 28/21 A2990 RMK AO1 SLP123 T02830206





000
SAUS41 KLWX 040355
MTRNAK
METAR KNAK 040354Z AUTO 00000KT 6SM HZ CLR 26/23 A2988 RMK AO2
SLP121 T02560228





000
SAUS41 KLWX 040300
MTRRYT
METAR KRYT 040253Z AUTO 00000KT 5SM BR CLR 22/20 A2993 RMK AO2
SLP122 T02170200 50007 $





000
SAUS41 KLWX 040258
MTRDMH
METAR KDMH 040254Z AUTO 28/21 A2989 RMK AO1 SLP120 T02830211 50008





000
SAUS41 KLWX 040258
MTRDMH
METAR KDMH 040254Z AUTO 28/21 A2989 RMK AO1 SLP120 T02830211 50008





000
SAUS41 KLWX 040255
MTRNAK
METAR KNAK 040254Z AUTO 00000KT 6SM HZ CLR 26/23 A2988 RMK AO2
SLP120 T02610233 50008





000
SAUS41 KLWX 040200
MTRRYT
METAR KRYT 040153Z AUTO 00000KT 6SM BR CLR 22/21 A2994 RMK AO2
SLP125 T02220206 $





000
SAUS41 KLWX 040158
MTRDMH
METAR KDMH 040154Z AUTO 29/21 A2989 RMK AO1 SLP123 T02940206





000
SAUS41 KLWX 040155
MTRNAK
METAR KNAK 040154Z AUTO 00000KT 6SM HZ CLR 27/24 A2989 RMK AO2
SLP123 T02670239





000
SAUS41 KLWX 040155
MTRNAK
METAR KNAK 040154Z AUTO 00000KT 6SM HZ CLR 27/24 A2989 RMK AO2
SLP123 T02670239





000
SAUS41 KLWX 040100
MTRRYT
METAR KRYT 040053Z AUTO 00000KT 6SM HZ CLR 23/21 A2993 RMK AO2
SLP123 T02330206 $





000
SAUS41 KLWX 040058
MTRDMH
METAR KDMH 040054Z AUTO 30/21 A2988 RMK AO1 SLP119 T03000206





000
SAUS41 KLWX 040055
MTRNAK
METAR KNAK 040054Z AUTO 33003KT 6SM HZ CLR 27/24 A2987 RMK AO2
SLP118 T02720239





000
SAUS41 KLWX 040055
MTRNAK
METAR KNAK 040054Z AUTO 33003KT 6SM HZ CLR 27/24 A2987 RMK AO2
SLP118 T02720239





000
SAUS41 KLWX 040000
MTRRYT
METAR KRYT 032353Z AUTO 00000KT 8SM OVC060 26/21 A2991 RMK AO2
SLP115 T02560211 10317 20244 53009 $





000
SAUS41 KLWX 040000
MTRRYT
METAR KRYT 032353Z AUTO 00000KT 8SM OVC060 26/21 A2991 RMK AO2
SLP115 T02560211 10317 20244 53009 $





000
SAUS41 KLWX 032358
MTRDMH
METAR KDMH 032354Z AUTO 31/21 A2986 RMK AO1 SLP112 T03110211 10339
20311 53009





000
SAUS41 KLWX 032358
MTRDMH
METAR KDMH 032354Z AUTO 31/21 A2986 RMK AO1 SLP112 T03110211 10339
20311 53009





000
SAUS41 KLWX 032355
MTRNAK
METAR KNAK 032354Z AUTO 00000KT 7SM CLR 28/23 A2986 RMK AO2 SLP112
T02780233 10306 20278 53006





000
SAUS41 KLWX 032355
MTRNAK
METAR KNAK 032354Z AUTO 00000KT 7SM CLR 28/23 A2986 RMK AO2 SLP112
T02780233 10306 20278 53006





000
SAUS41 KLWX 032300
MTRRYT
METAR KRYT 032253Z AUTO 00000KT 8SM CLR 27/21 A2989 RMK AO2 SLP108
T02670211 $





000
SAUS41 KLWX 032300
MTRRYT
METAR KRYT 032253Z AUTO 00000KT 8SM CLR 27/21 A2989 RMK AO2 SLP108
T02670211 $





000
SAUS41 KLWX 032258
MTRDMH
METAR KDMH 032254Z AUTO 32/20 A2985 RMK AO1 SLP106 T03170200





000
SAUS41 KLWX 032258
MTRDMH
METAR KDMH 032254Z AUTO 32/20 A2985 RMK AO1 SLP106 T03170200





000
SAUS41 KLWX 032255
MTRNAK
METAR KNAK 032254Z AUTO 00000KT 7SM CLR 29/21 A2984 RMK AO2 SLP107
T02940211





000
SAUS41 KLWX 032200
MTRRYT
METAR KRYT 032153Z AUTO 00000KT 8SM SCT060 29/22 A2988 RMK AO2
SLP105 T02890217 $





000
SAUS41 KLWX 032200
MTRRYT
METAR KRYT 032153Z AUTO 00000KT 8SM SCT060 29/22 A2988 RMK AO2
SLP105 T02890217 $





000
SAUS41 KLWX 032158
MTRDMH
METAR KDMH 032154Z AUTO 33/19 A2984 RMK AO1 SLP103 T03280189





000
SAUS41 KLWX 032155
MTRNAK
METAR KNAK 032154Z AUTO 14004KT 7SM CLR 30/22 A2983 RMK AO2 SLP104
T03000222





000
SAUS41 KLWX 032100
MTRRYT
METAR KRYT 032053Z AUTO 00000KT 9SM CLR 29/21 A2988 RMK AO2 SLP105
T02890211 56014 $





000
SAUS41 KLWX 032100
MTRRYT
METAR KRYT 032053Z AUTO 00000KT 9SM CLR 29/21 A2988 RMK AO2 SLP105
T02890211 56014 $





000
SAUS41 KLWX 032058
MTRDMH
METAR KDMH 032054Z AUTO 34/18 A2984 RMK AO1 SLP103 T03390183 56015





000
SAUS41 KLWX 032055
MTRNAK
METAR KNAK 032054Z AUTO 13007KT 6SM HZ CLR 30/23 A2984 RMK AO2
SLP106 T03000233 56015





000
SAUS41 KLWX 032000
MTRRYT
METAR KRYT 031953Z AUTO 00000KT 10SM FEW050 31/18 A2989 RMK AO2
SLP105 T03110178 $





000
SAUS41 KLWX 032000
MTRRYT
METAR KRYT 031953Z AUTO 00000KT 10SM FEW050 31/18 A2989 RMK AO2
SLP105 T03110178 $





000
SAUS41 KLWX 031958
MTRDMH
METAR KDMH 031954Z AUTO 33/17 A2984 RMK AO1 SLP105 T03330172





000
SAUS41 KLWX 031955
MTRNAK
METAR KNAK 031954Z AUTO 14007KT 6SM HZ CLR 29/23 A2985 RMK AO2
SLP109 T02940233





000
SAUS41 KLWX 031900
MTRRYT
METAR KRYT 031853Z AUTO VRB04KT 10SM SCT048 31/19 A2991 RMK AO2
SLP113 T03110189 $





000
SAUS41 KLWX 031858
MTRDMH
METAR KDMH 031854Z AUTO 33/19 A2986 RMK AO1 SLP111 T03330189





000
SAUS41 KLWX 031855
MTRNAK
METAR KNAK 031854Z AUTO 14009KT 6SM HZ CLR 29/23 A2987 RMK AO2
SLP115 T02940233





000
SAUS41 KLWX 031855
MTRNAK
METAR KNAK 031854Z AUTO 14009KT 6SM HZ CLR 29/23 A2987 RMK AO2
SLP115 T02940233





000
SAUS41 KLWX 031800
MTRRYT
METAR KRYT 031753Z AUTO VRB03KT 10SM FEW046 31/19 A2992 RMK AO2
SLP118 T03060189 10306 20222 56013 $





000
SAUS41 KLWX 031800
MTRRYT
METAR KRYT 031753Z AUTO VRB03KT 10SM FEW046 31/19 A2992 RMK AO2
SLP118 T03060189 10306 20222 56013 $





000
SAUS41 KLWX 031758
MTRDMH
METAR KDMH 031754Z AUTO 32/19 A2988 RMK AO1 SLP118 T03170194 10322
20256 56013





000
SAUS41 KLWX 031758
MTRDMH
METAR KDMH 031754Z AUTO 32/19 A2988 RMK AO1 SLP118 T03170194 10322
20256 56013





000
SAUS41 KLWX 031755
MTRNAK
METAR KNAK 031754Z AUTO 13009KT 6SM HZ CLR 29/22 A2988 RMK AO2
SLP120 T02890222 10311 20244 56013





000
SAUS41 KLWX 031755
MTRNAK
METAR KNAK 031754Z AUTO 13009KT 6SM HZ CLR 29/22 A2988 RMK AO2
SLP120 T02890222 10311 20244 56013





000
SAUS41 KLWX 031700
MTRRYT
METAR KRYT 031653Z AUTO VRB03KT 10SM CLR 29/20 A2994 RMK AO2 SLP122
T02940200 $





000
SAUS41 KLWX 031700
MTRRYT
METAR KRYT 031653Z AUTO VRB03KT 10SM CLR 29/20 A2994 RMK AO2 SLP122
T02940200 $





000
SAUS41 KLWX 031658
MTRDMH
METAR KDMH 031654Z AUTO 32/20 A2989 RMK AO1 SLP121 T03170200





000
SAUS41 KLWX 031658
MTRDMH
METAR KDMH 031654Z AUTO 32/20 A2989 RMK AO1 SLP121 T03170200





000
SAUS41 KLWX 031656
MTRNAK
METAR KNAK 031654Z AUTO 34004KT 6SM HZ CLR 30/22 A2989 RMK AO2
SLP124 T03000217





000
SAUS41 KLWX 031656
MTRNAK
METAR KNAK 031654Z AUTO 34004KT 6SM HZ CLR 30/22 A2989 RMK AO2
SLP124 T03000217





000
SAUS41 KLWX 031600
MTRRYT
METAR KRYT 031553Z AUTO 00000KT 10SM CLR 29/20 A2995 RMK AO2 SLP127
T02940200 $





000
SAUS41 KLWX 031558
MTRDMH
METAR KDMH 031554Z AUTO 31/20 A2990 RMK AO1 SLP126 T03110200





000
SAUS41 KLWX 031555
MTRNAK
METAR KNAK 031554Z AUTO 00000KT 6SM HZ CLR 30/22 A2990 RMK AO2
SLP128 T03000222





000
SAUS41 KLWX 031500
MTRRYT
METAR KRYT 031453Z AUTO 00000KT 8SM CLR 27/21 A2996 RMK AO2 SLP133
T02670206 50003 $





000
SAUS41 KLWX 031458
MTRDMH
METAR KDMH 031454Z AUTO 29/20 A2992 RMK AO1 SLP131 T02940200 50002





000
SAUS41 KLWX 031455
MTRNAK
METAR KNAK 031454Z AUTO 31003KT 6SM HZ CLR 28/22 A2992 RMK AO2
SLP133 T02830217 53002





000
SAUS41 KLWX 031455
MTRNAK
METAR KNAK 031454Z AUTO 31003KT 6SM HZ CLR 28/22 A2992 RMK AO2
SLP133 T02830217 53002





000
SAUS41 KLWX 031400
MTRRYT
METAR KRYT 031353Z AUTO 25004KT 9SM CLR 24/19 A2997 RMK AO2 SLP137
T02440194 $





000
SAUS41 KLWX 031358
MTRDMH
METAR KDMH 031354Z AUTO 28/19 A2992 RMK AO1 SLP132 T02830194





000
SAUS41 KLWX 031355
MTRNAK
METAR KNAK 031354Z AUTO 31003KT 7SM CLR 27/22 A2992 RMK AO2 SLP132
T02720217





000
SAUS41 KLWX 031355
MTRNAK
METAR KNAK 031354Z AUTO 31003KT 7SM CLR 27/22 A2992 RMK AO2 SLP132
T02720217





000
SAUS41 KLWX 031300
MTRRYT
METAR KRYT 031253Z AUTO 00000KT 8SM CLR 23/20 A2996 RMK AO2 SLP135
T02280200 $





000
SAUS41 KLWX 031300
MTRRYT
METAR KRYT 031253Z AUTO 00000KT 8SM CLR 23/20 A2996 RMK AO2 SLP135
T02280200 $





000
SAUS41 KLWX 031258
MTRDMH
METAR KDMH 031254Z AUTO 27/19 A2992 RMK AO1 SLP130 T02720194





000
SAUS41 KLWX 031258
MTRDMH
METAR KDMH 031254Z AUTO 27/19 A2992 RMK AO1 SLP130 T02720194





000
SAUS41 KLWX 031256
MTRNAK
METAR KNAK 031254Z AUTO 32003KT 6SM HZ CLR 26/21 A2991 RMK AO2
SLP131 T02560211





000
SAUS41 KLWX 031256
MTRNAK
METAR KNAK 031254Z AUTO 32003KT 6SM HZ CLR 26/21 A2991 RMK AO2
SLP131 T02560211





000
SAUS41 KLWX 031200
MTRRYT
METAR KRYT 031153Z AUTO 00000KT 8SM CLR 22/19 A2996 RMK AO2 SLP133
70038 T02220189 10222 20200 53005 $





000
SAUS41 KLWX 031200
MTRRYT
METAR KRYT 031153Z AUTO 00000KT 8SM CLR 22/19 A2996 RMK AO2 SLP133
70038 T02220189 10222 20200 53005 $





000
SAUS41 KLWX 031158
MTRDMH
METAR KDMH 031154Z AUTO 26/19 A2991 RMK AO1 SLP129 T02560194 10256
20239 53006





000
SAUS41 KLWX 031158
MTRDMH
METAR KDMH 031154Z AUTO 26/19 A2991 RMK AO1 SLP129 T02560194 10256
20239 53006





000
SAUS41 KLWX 031155
MTRNAK
METAR KNAK 031154Z AUTO 00000KT 6SM HZ CLR 24/21 A2991 RMK AO2
SLP131 T02440211 10244 20222 53009





000
SAUS41 KLWX 031100
MTRRYT
METAR KRYT 031053Z AUTO 00000KT 7SM CLR 21/19 A2994 RMK AO2 SLP127
T02110189 $





000
SAUS41 KLWX 031100
MTRRYT
METAR KRYT 031053Z AUTO 00000KT 7SM CLR 21/19 A2994 RMK AO2 SLP127
T02110189 $





000
SAUS41 KLWX 031058
MTRDMH
METAR KDMH 031054Z AUTO 25/19 A2990 RMK AO1 SLP125 T02500189





000
SAUS41 KLWX 031058
MTRDMH
METAR KDMH 031054Z AUTO 25/19 A2990 RMK AO1 SLP125 T02500189





000
SAUS41 KLWX 031055
MTRNAK
METAR KNAK 031054Z AUTO 31003KT 6SM BR CLR 23/21 A2990 RMK AO2
SLP125 T02330211





000
SAUS41 KLWX 031000
MTRRYT
METAR KRYT 030953Z AUTO 00000KT 9SM CLR 21/19 A2994 RMK AO2 SLP127
T02110189 $





000
SAUS41 KLWX 030958
MTRDMH
METAR KDMH 030954Z AUTO 24/19 A2990 RMK AO1 SLP123 T02440189





000
SAUS41 KLWX 030956
MTRNAK
METAR KNAK 030954Z AUTO 29003KT 8SM CLR 23/20 A2989 RMK AO2 SLP122
T02280200





000
SAUS41 KLWX 030900
MTRRYT
METAR KRYT 030853Z AUTO 00000KT 9SM FEW055 21/19 A2994 RMK AO2
SLP128 T02110189 55003 $





000
SAUS41 KLWX 030858
MTRDMH
METAR KDMH 030854Z AUTO 24/19 A2989 RMK AO1 SLP123 T02440189 55006





000
SAUS41 KLWX 030856
MTRNAK
METAR KNAK 030854Z AUTO 30004KT 8SM CLR 23/21 A2989 RMK AO2 SLP122
T02330206 55006





000
SAUS41 KLWX 030800
MTRRYT
METAR KRYT 030753Z AUTO 00000KT 9SM CLR 22/19 A2993 RMK AO2 SLP122
T02170189 $





000
SAUS41 KLWX 030800
MTRRYT
METAR KRYT 030753Z AUTO 00000KT 9SM CLR 22/19 A2993 RMK AO2 SLP122
T02170189 $





000
SAUS41 KLWX 030758
MTRDMH
METAR KDMH 030754Z AUTO 24/19 A2989 RMK AO1 SLP122 T02390189





000
SAUS41 KLWX 030758
MTRDMH
METAR KDMH 030754Z AUTO 24/19 A2989 RMK AO1 SLP122 T02390189





000
SAUS41 KLWX 030755
MTRNAK
METAR KNAK 030754Z AUTO 29003KT 8SM CLR 23/21 A2988 RMK AO2 SLP120
T02330206





000
SAUS41 KLWX 030701
MTRRYT
METAR KRYT 030653Z AUTO 00000KT 5SM BR CLR 20/19 A2993 RMK AO2
SLP120 T02000189 $





000
SAUS41 KLWX 030701
MTRRYT
METAR KRYT 030653Z AUTO 00000KT 5SM BR CLR 20/19 A2993 RMK AO2
SLP120 T02000189 $





000
SAUS41 KLWX 030658
MTRDMH
METAR KDMH 030654Z AUTO 24/19 A2989 RMK AO1 SLP122 T02440189





000
SAUS41 KLWX 030658
MTRDMH
METAR KDMH 030654Z AUTO 24/19 A2989 RMK AO1 SLP122 T02440189





000
SAUS41 KLWX 030655
MTRNAK
METAR KNAK 030654Z AUTO 31004KT 8SM CLR 24/21 A2989 RMK AO2 SLP122
T02440211





000
SAUS41 KLWX 030655
MTRNAK
METAR KNAK 030654Z AUTO 31004KT 8SM CLR 24/21 A2989 RMK AO2 SLP122
T02440211





000
SAUS41 KLWX 030600
MTRRYT
METAR KRYT 030553Z AUTO 00000KT 9SM CLR 21/19 A2995 RMK AO2 SLP127
P0001 60001 T02110194 10228 20206 58008 $





000
SAUS41 KLWX 030600
MTRRYT
METAR KRYT 030553Z AUTO 00000KT 9SM CLR 21/19 A2995 RMK AO2 SLP127
P0001 60001 T02110194 10228 20206 58008 $





000
SAUS41 KLWX 030557
MTRDMH
METAR KDMH 030554Z AUTO 25/19 A2991 RMK AO1 SLP129 T02500189 10289
20244 58005





000
SAUS41 KLWX 030557
MTRDMH
METAR KDMH 030554Z AUTO 25/19 A2991 RMK AO1 SLP129 T02500189 10289
20244 58005





000
SAUS41 KLWX 030555
MTRNAK
METAR KNAK 030554Z AUTO 30004KT 8SM CLR 24/22 A2990 RMK AO2 SLP128
T02440217 10278 20239 58008





000
SAUS41 KLWX 030555
MTRNAK
METAR KNAK 030554Z AUTO 30004KT 8SM CLR 24/22 A2990 RMK AO2 SLP128
T02440217 10278 20239 58008





000
SAUS41 KLWX 030500
MTRRYT
METAR KRYT 030453Z AUTO 00000KT 8SM CLR 21/19 A2997 RMK AO2 SLP132
T02110194 403220189 $





000
SAUS41 KLWX 030500
MTRRYT
METAR KRYT 030453Z AUTO 00000KT 8SM CLR 21/19 A2997 RMK AO2 SLP132
T02110194 403220189 $





000
SAUS41 KLWX 030458
MTRDMH
METAR KDMH 030454Z AUTO 24/19 A2993 RMK AO1 SLP134 T02440194
403390244





000
SAUS41 KLWX 030457
MTRNAK
METAR KNAK 030454Z AUTO 31004KT 7SM CLR 25/22 A2992 RMK AO2 SLP132
T02500217 403000239





000
SAUS41 KLWX 030400
MTRRYT
METAR KRYT 030353Z AUTO 00000KT 5SM BR CLR 21/19 A2997 RMK AO2
SLP136 T02060194 $





000
SAUS41 KLWX 030358
MTRDMH
METAR KDMH 030354Z AUTO 26/18 A2993 RMK AO1 SLP135 T02610183





000
SAUS41 KLWX 030355
MTRNAK
METAR KNAK 030354Z AUTO 29003KT 6SM HZ CLR 24/22 A2992 RMK AO2
SLP134 T02440217





000
SAUS41 KLWX 030300
MTRRYT
METAR KRYT 030253Z AUTO 23003KT 6SM BR CLR 21/19 A2997 RMK AO2
SLP136 T02110194 53005 $





000
SAUS41 KLWX 030258
MTRDMH
METAR KDMH 030254Z AUTO 27/18 A2993 RMK AO1 SLP134 T02720183 51004





000
SAUS41 KLWX 030255
MTRNAK
METAR KNAK 030254Z AUTO 00000KT 7SM CLR 25/22 A2993 RMK AO2 SLP137
T02500222 53006





000
SAUS41 KLWX 030255
MTRNAK
METAR KNAK 030254Z AUTO 00000KT 7SM CLR 25/22 A2993 RMK AO2 SLP137
T02500222 53006





000
SAUS41 KLWX 030200
MTRRYT
METAR KRYT 030153Z AUTO 00000KT 5SM BR CLR 21/19 A2997 RMK AO2
SLP136 T02060194 $





000
SAUS41 KLWX 030200
MTRRYT
METAR KRYT 030153Z AUTO 00000KT 5SM BR CLR 21/19 A2997 RMK AO2
SLP136 T02060194 $





000
SAUS41 KLWX 030158
MTRDMH
METAR KDMH 030154Z AUTO 27/18 A2993 RMK AO1 SLP134 T02720183





000
SAUS41 KLWX 030155
MTRNAK
METAR KNAK 030154Z AUTO 00000KT 4SM HZ CLR 26/23 A2992 RMK AO2
SLP133 T02560228





000
SAUS41 KLWX 030155
MTRNAK
METAR KNAK 030154Z AUTO 00000KT 4SM HZ CLR 26/23 A2992 RMK AO2
SLP133 T02560228





000
SAUS41 KLWX 030100
MTRRYT
METAR KRYT 030053Z AUTO 00000KT 3SM BR CLR 21/19 A2996 RMK AO2
SLP135 T02060194 $





000
SAUS41 KLWX 030100
MTRRYT
METAR KRYT 030053Z AUTO 00000KT 3SM BR CLR 21/19 A2996 RMK AO2
SLP135 T02060194 $





000
SAUS41 KLWX 030058
MTRDMH
METAR KDMH 030054Z AUTO 28/18 A2993 RMK AO1 SLP133 T02780178





000
SAUS41 KLWX 030058
MTRDMH
METAR KDMH 030054Z AUTO 28/18 A2993 RMK AO1 SLP133 T02780178





000
SAUS41 KLWX 030055
MTRNAK
METAR KNAK 030054Z AUTO 00000KT 7SM CLR 26/22 A2992 RMK AO2 SLP135
T02610217





000
SAUS41 KLWX 030000
MTRRYT
METAR KRYT 022353Z AUTO 00000KT 4SM BR CLR 21/20 A2996 RMK AO2
SLP134 60037 T02110200 10322 20206 55019 $





000
SAUS41 KLWX 030000
MTRRYT
METAR KRYT 022353Z AUTO 00000KT 4SM BR CLR 21/20 A2996 RMK AO2
SLP134 60037 T02110200 10322 20206 55019 $





000
SAUS41 KLWX 022358
MTRDMH
METAR KDMH 022354Z AUTO 29/18 A2992 RMK AO1 SLP130 T02890178 10339
20283 55004





000
SAUS41 KLWX 022358
MTRDMH
METAR KDMH 022354Z AUTO 29/18 A2992 RMK AO1 SLP130 T02890178 10339
20283 55004





000
SAUS41 KLWX 022355
MTRNAK
METAR KNAK 022354Z AUTO 00000KT 8SM CLR 28/22 A2991 RMK AO2 SLP131
T02780217 10300 20278 55007





000
SAUS41 KLWX 022355
MTRNAK
METAR KNAK 022354Z AUTO 00000KT 8SM CLR 28/22 A2991 RMK AO2 SLP131
T02780217 10300 20278 55007





000
SAUS41 KLWX 022300
MTRRYT
METAR KRYT 022253Z AUTO 00000KT 4SM BR CLR 22/21 A2995 RMK AO2
TSE2155RAB07E25 SLP133 P0000 T02170206 $





000
SAUS41 KLWX 022300
MTRRYT
METAR KRYT 022253Z AUTO 00000KT 4SM BR CLR 22/21 A2995 RMK AO2
TSE2155RAB07E25 SLP133 P0000 T02170206 $





000
SAUS41 KLWX 022258
MTRDMH
METAR KDMH 022254Z AUTO 29/18 A2990 RMK AO1 SLP126 T02940183





000
SAUS41 KLWX 022255
MTRNAK
METAR KNAK 022254Z AUTO 00000KT 7SM CLR 29/22 A2990 RMK AO2 SLP127
T02890222





000
SAUS41 KLWX 022238
MTRRSP
METAR KRSP 022154Z AUTO 4SM -RA BKN100 OVC110 21/18 A3002 RMK AO2
TSE13 SLP158 P0004 T02110183 $





000
SAUS41 KLWX 022231
MTRRYT
SPECI KRYT 022224Z AUTO 00000KT 4SM -RA BR FEW044 21/20 A2996 RMK
AO2 TSE2155RAB07 P0000 $





000
SAUS41 KLWX 022223
MTRRSP
SPECI KRSP 022139Z AUTO 2 1/2SM -RA OVC100 22/18 A3003 RMK AO2 TSE13
P0003 $





000
SAUS41 KLWX 022208
MTRRYT
SPECI KRYT 022201Z AUTO 00000KT 2SM BR CLR 21/20 A2998 RMK AO2
TSE2155 $





000
SAUS41 KLWX 022203
MTRRSP
SPECI KRSP 022119Z AUTO 4SM -RA BR OVC110 21/18 A3004 RMK AO2 TSE13
P0001 $





000
SAUS41 KLWX 022200
MTRRYT
METAR KRYT 022153Z AUTO 00000KT 2 1/2SM TS BR FEW100 21/20 A2998 RMK
AO2 RAE43 SLP142 P0020 T02110200 $





000
SAUS41 KLWX 022200
MTRRYT
METAR KRYT 022153Z AUTO 00000KT 2 1/2SM TS BR FEW100 21/20 A2998 RMK
AO2 RAE43 SLP142 P0020 T02110200 $





000
SAUS41 KLWX 022158
MTRDMH
METAR KDMH 022154Z AUTO 31/22 A2993 RMK AO1 SLP135 T03060217





000
SAUS41 KLWX 022155
MTRNAK
METAR KNAK 022154Z AUTO 19004KT 7SM FEW070 29/23 A2992 RMK AO2
SLP135 T02890228





000
SAUS41 KLWX 022152
MTRRYT
SPECI KRYT 022145Z AUTO 00000KT 3SM TS BR SCT100 SCT120 22/20 A2998
RMK AO2 RAE43 P0020 $





000
SAUS41 KLWX 022138
MTRRSP
METAR KRSP 022054Z AUTO 4SM -TSRA FEW075 BKN100 21/18 A3005 RMK AO2
RAB29 SLP167 P0001 60001 T02060178 56005 $





000
SAUS41 KLWX 022133
MTRRYT
SPECI KRYT 022126Z AUTO 00000KT 2 1/2SM -TSRA BR FEW040 BKN095
OVC110 22/20 A2999 RMK AO2 P0020 $





000
SAUS41 KLWX 022115
MTRRYT
SPECI KRYT 022114Z AUTO 20007KT 1 1/2SM +TSRA BR BKN032 BKN065
OVC100 22/19 A3000 RMK AO2 P0018 $





000
SAUS41 KLWX 022115
MTRRYT
SPECI KRYT 022114Z AUTO 20007KT 1 1/2SM +TSRA BR BKN032 BKN065
OVC100 22/19 A3000 RMK AO2 P0018 $





000
SAUS41 KLWX 022108
MTRRYT
SPECI KRYT 022101Z AUTO VRB05KT 1 3/4SM +TSRA BR BKN022 BKN060
OVC070 22/19 A3002 RMK AO2 P0005 $





000
SAUS41 KLWX 022100
MTRRYT
METAR KRYT 022053Z AUTO VRB04KT 3SM -TSRA BKN020 OVC055 22/19 A3001
RMK AO2 RAB25 SLP154 P0017 60017 T02220189 53010 $





000
SAUS41 KLWX 022100
MTRRYT
METAR KRYT 022053Z AUTO VRB04KT 3SM -TSRA BKN020 OVC055 22/19 A3001
RMK AO2 RAB25 SLP154 P0017 60017 T02220189 53010 $





000
SAUS41 KLWX 022058
MTRDMH
METAR KDMH 022054Z AUTO 33/19 A2993 RMK AO1 SLP134 T03280189 56016





000
SAUS41 KLWX 022055
MTRNAK
METAR KNAK 022054Z AUTO 16008KT 7SM CLR 30/22 A2993 RMK AO2 SLP138
T03000222 56018





000
SAUS41 KLWX 022053
MTRRYT
SPECI KRYT 022046Z AUTO 22007KT 190V250 2SM TSRA BKN022 OVC055 22/19
A3000 RMK AO2 VIS 1 3/4V2 1/2 RAB25 P0016 $





000
SAUS41 KLWX 022038
MTRRSP
METAR KRSP 021954Z AUTO 9SM TS FEW065 24/18 A3005 RMK AO2 RAB10E18
SLP167 P0000 T02390178 $





000
SAUS41 KLWX 022036
MTRRYT
SPECI KRYT 022029Z AUTO 26010G14KT 1 1/2SM -TSRA FEW012 OVC055 26/20
A2999 RMK AO2 RAB25 PRESRR P0007 $





000
SAUS41 KLWX 022036
MTRRYT
SPECI KRYT 022029Z AUTO 26010G14KT 1 1/2SM -TSRA FEW012 OVC055 26/20
A2999 RMK AO2 RAB25 PRESRR P0007 $





000
SAUS41 KLWX 022000
MTRRYT
METAR KRYT 021953Z AUTO 00000KT 8SM TS FEW060 28/19 A2997 RMK AO2
TSB43 SLP136 T02830189 $





000
SAUS41 KLWX 021958
MTRDMH
METAR KDMH 021954Z AUTO 33/18 A2993 RMK AO1 SLP135 T03280178





000
SAUS41 KLWX 021958
MTRDMH
METAR KDMH 021954Z AUTO 33/18 A2993 RMK AO1 SLP135 T03280178





000
SAUS41 KLWX 021955
MTRNAK
METAR KNAK 021954Z AUTO 13009KT 7SM CLR 29/23 A2994 RMK AO2 SLP139
T02890228





000
SAUS41 KLWX 021938
MTRRSP
METAR KRSP 021854Z AUTO 7SM TS FEW042 SCT050 BKN090 27/19 A3005 RMK
AO2 TSB25 SLP164 T02670194 $





000
SAUS41 KLWX 021916
MTRRSP
SPECI KRSP 021831Z AUTO 7SM TS BKN038 BKN048 BKN060 29/18 A3005 RMK
AO2 TSB25 $





000
SAUS41 KLWX 021900
MTRRYT
METAR KRYT 021853Z AUTO 00000KT 9SM CLR 31/17 A2998 RMK AO2 SLP139
T03110172 $





000
SAUS41 KLWX 021858
MTRDMH
METAR KDMH 021854Z AUTO 33/17 A2995 RMK AO1 SLP141 T03280172





000
SAUS41 KLWX 021855
MTRNAK
METAR KNAK 021854Z AUTO 13007KT 6SM HZ CLR 29/23 A2996 RMK AO2
SLP147 T02890233





000
SAUS41 KLWX 021838
MTRRSP
METAR KRSP 021754Z AUTO 7SM CLR 29/19 A3006 RMK AO2 SLP168 T02940194
10300 20222 58020 $





000
SAUS41 KLWX 021800
MTRRYT
METAR KRYT 021753Z AUTO VRB05KT 8SM CLR 31/18 A3000 RMK AO2 SLP146
T03060183 10311 20206 58020 $





000
SAUS41 KLWX 021800
MTRRYT
METAR KRYT 021753Z AUTO VRB05KT 8SM CLR 31/18 A3000 RMK AO2 SLP146
T03060183 10311 20206 58020 $





000
SAUS41 KLWX 021758
MTRDMH
METAR KDMH 021754Z AUTO 32/18 A2997 RMK AO1 SLP150 T03220178 10333
20261 58021





000
SAUS41 KLWX 021755
MTRNAK
METAR KNAK 021754Z AUTO 13006KT 6SM HZ CLR 28/24 A2999 RMK AO2
SLP156 T02830239 10300 20250 58015





000
SAUS41 KLWX 021738
MTRRSP
METAR KRSP 021654Z AUTO 6SM HZ CLR 28/19 A3008 RMK AO2 SLP174
T02830194 $





000
SAUS41 KLWX 021738
MTRRSP
METAR KRSP 021654Z AUTO 6SM HZ CLR 28/19 A3008 RMK AO2 SLP174
T02830194 $





000
SAUS41 KLWX 021700
MTRRYT
METAR KRYT 021653Z AUTO VRB05KT 8SM CLR 30/19 A3004 RMK AO2 SLP158
T03000189 PWINO $





000
SAUS41 KLWX 021700
MTRRYT
METAR KRYT 021653Z AUTO VRB05KT 8SM CLR 30/19 A3004 RMK AO2 SLP158
T03000189 PWINO $





000
SAUS41 KLWX 021659
MTRDMH
METAR KDMH 021654Z AUTO 31/17 A3000 RMK AO1 SLP158 T03110172





000
SAUS41 KLWX 021659
MTRDMH
METAR KDMH 021654Z AUTO 31/17 A3000 RMK AO1 SLP158 T03110172





000
SAUS41 KLWX 021657 COR
MTRNAK
METAR KNAK 021654Z AUTO 00000KT 7SM CLR 30/21 A3000 RMK AO2 SLP161
T03000211





000
SAUS41 KLWX 021657 COR
MTRNAK
METAR KNAK 021654Z AUTO 00000KT 7SM CLR 30/21 A3000 RMK AO2 SLP161
T03000211





000
SAUS41 KLWX 021656 COR
MTRNAK
METAR KNAK 021654Z AUTO 00000KT 7SM CLR 30/21 A3000 RMK AO2 SLP161
T03000211





000
SAUS41 KLWX 021638
MTRRSP
METAR KRSP 021554Z AUTO 7SM CLR 27/18 A3011 RMK AO2 SLP183 T02720183
$





000
SAUS41 KLWX 021600
MTRRYT
METAR KRYT 021553Z AUTO VRB04KT 9SM CLR 29/19 A3006 RMK AO2 SLP165
T02940189 $





000
SAUS41 KLWX 021558
MTRDMH
METAR KDMH 021554Z AUTO 31/19 A3002 RMK AO1 SLP166 T03110189





000
SAUS41 KLWX 021555
MTRNAK
METAR KNAK 021554Z AUTO 33004KT 4SM HZ CLR 28/22 A3002 RMK AO2
SLP169 T02830222





000
SAUS41 KLWX 021555
MTRNAK
METAR KNAK 021554Z AUTO 33004KT 4SM HZ CLR 28/22 A3002 RMK AO2
SLP169 T02830222





000
SAUS41 KLWX 021538
MTRRSP
METAR KRSP 021454Z AUTO 7SM CLR 28/19 A3012 RMK AO2 SLP189 T02780189
57004 $





000
SAUS41 KLWX 021500
MTRRYT
METAR KRYT 021453Z AUTO 00000KT 10SM CLR 28/18 A3007 RMK AO2 SLP168
T02830183 58004 $





000
SAUS41 KLWX 021458
MTRDMH
METAR KDMH 021454Z AUTO 29/18 A3004 RMK AO1 SLP170 T02940183 58003





000
SAUS41 KLWX 021455
MTRNAK
METAR KNAK 021454Z AUTO 00000KT 5SM HZ FEW065 28/24 A3003 RMK AO2
SLP171 T02780239 58003





000
SAUS41 KLWX 021438
MTRRSP
METAR KRSP 021354Z AUTO 8SM CLR 26/19 A3013 RMK AO2 SLP191 T02610189
$





000
SAUS41 KLWX 021400
MTRRYT
METAR KRYT 021353Z AUTO 00000KT 10SM CLR 24/18 A3007 RMK AO2 SLP171
T02440183 $





000
SAUS41 KLWX 021400
MTRRYT
METAR KRYT 021353Z AUTO 00000KT 10SM CLR 24/18 A3007 RMK AO2 SLP171
T02440183 $





000
SAUS41 KLWX 021358
MTRDMH
METAR KDMH 021354Z AUTO 28/18 A3004 RMK AO1 SLP172 T02830183





000
SAUS41 KLWX 021355
MTRNAK
METAR KNAK 021354Z AUTO 33003KT 4SM HZ CLR 27/24 A3003 RMK AO2
SLP171 T02670239





000
SAUS41 KLWX 021338
MTRRSP
METAR KRSP 021254Z AUTO 8SM CLR 24/18 A3013 RMK AO2 SLP193 T02390183
$





000
SAUS41 KLWX 021338
MTRRSP
METAR KRSP 021254Z AUTO 8SM CLR 24/18 A3013 RMK AO2 SLP193 T02390183
$





000
SAUS41 KLWX 021300
MTRRYT
METAR KRYT 021253Z AUTO 00000KT 9SM CLR 23/19 A3008 RMK AO2 SLP173
T02280189 $





000
SAUS41 KLWX 021300
MTRRYT
METAR KRYT 021253Z AUTO 00000KT 9SM CLR 23/19 A3008 RMK AO2 SLP173
T02280189 $





000
SAUS41 KLWX 021258
MTRDMH
METAR KDMH 021254Z AUTO 27/18 A3005 RMK AO1 SLP174 T02670178





000
SAUS41 KLWX 021258
MTRDMH
METAR KDMH 021254Z AUTO 27/18 A3005 RMK AO1 SLP174 T02670178





000
SAUS41 KLWX 021255
MTRNAK
METAR KNAK 021254Z AUTO 00000KT 3SM BR CLR 26/24 A3004 RMK AO2
SLP174 T02610239





000
SAUS41 KLWX 021238
MTRRSP
METAR KRSP 021154Z AUTO 9SM CLR 22/17 A3014 RMK AO2 SLP196 T02220167
10228 20211 51006 $





000
SAUS41 KLWX 021238
MTRRSP
METAR KRSP 021154Z AUTO 9SM CLR 22/17 A3014 RMK AO2 SLP196 T02220167
10228 20211 51006 $





000
SAUS41 KLWX 021207
MTRNAK
SPECI KNAK 021205Z AUTO 32003KT 3SM BR SCT010 25/24 A3004 RMK AO2
T02500239





000
SAUS41 KLWX 021207
MTRNAK
SPECI KNAK 021205Z AUTO 32003KT 3SM BR SCT010 25/24 A3004 RMK AO2
T02500239





000
SAUS41 KLWX 021200
MTRRYT
METAR KRYT 021153Z AUTO 00000KT 9SM CLR 21/17 A3008 RMK AO2 SLP174
T02060172 10206 20189 53007 $





000
SAUS41 KLWX 021200
MTRRYT
METAR KRYT 021153Z AUTO 00000KT 9SM CLR 21/17 A3008 RMK AO2 SLP174
T02060172 10206 20189 53007 $





000
SAUS41 KLWX 021158
MTRDMH
METAR KDMH 021154Z AUTO 26/19 A3005 RMK AO1 SLP174 T02610189 10272
20244 51007





000
SAUS41 KLWX 021158
MTRDMH
METAR KDMH 021154Z AUTO 26/19 A3005 RMK AO1 SLP174 T02610189 10272
20244 51007





000
SAUS41 KLWX 021155
MTRNAK
METAR KNAK 021154Z AUTO 32003KT 2 1/2SM BR OVC008 25/24 A3004 RMK
AO2 CIG 006V011 SLP173 T02500239 10250 20239 53009





000
SAUS41 KLWX 021155
MTRNAK
METAR KNAK 021154Z AUTO 32003KT 2 1/2SM BR OVC008 25/24 A3004 RMK
AO2 CIG 006V011 SLP173 T02500239 10250 20239 53009





000
SAUS41 KLWX 021147
MTRNAK
SPECI KNAK 021146Z AUTO 33003KT 2 1/2SM BR BKN008 25/24 A3004 RMK
AO2 CIG 005V010 T02500239





000
SAUS41 KLWX 021138
MTRRSP
METAR KRSP 021054Z AUTO 9SM CLR 22/16 A3013 RMK AO2 SLP194 T02220161
$





000
SAUS41 KLWX 021138
MTRRSP
METAR KRSP 021054Z AUTO 9SM CLR 22/16 A3013 RMK AO2 SLP194 T02220161
$





000
SAUS41 KLWX 021119
MTRNAK
SPECI KNAK 021118Z AUTO 33003KT 3SM BR BKN006 24/23 A3003 RMK AO2
T02440233





000
SAUS41 KLWX 021119
MTRNAK
SPECI KNAK 021118Z AUTO 33003KT 3SM BR BKN006 24/23 A3003 RMK AO2
T02440233





000
SAUS41 KLWX 021110
MTRNAK
SPECI KNAK 021109Z AUTO 31003KT 3SM BR SCT006 24/23 A3003 RMK AO2
T02440233





000
SAUS41 KLWX 021110
MTRNAK
SPECI KNAK 021109Z AUTO 31003KT 3SM BR SCT006 24/23 A3003 RMK AO2
T02440233





000
SAUS41 KLWX 021101
MTRRYT
METAR KRYT 021053Z AUTO 00000KT 8SM CLR 20/17 A3007 RMK AO2 SLP170
T02000167 $





000
SAUS41 KLWX 021101
MTRRYT
METAR KRYT 021053Z AUTO 00000KT 8SM CLR 20/17 A3007 RMK AO2 SLP170
T02000167 $





000
SAUS41 KLWX 021058
MTRDMH
METAR KDMH 021054Z AUTO 25/18 A3004 RMK AO1 SLP172 T02500183





000
SAUS41 KLWX 021055
MTRNAK
METAR KNAK 021054Z AUTO 00000KT 3SM BR FEW010 FEW070 24/23 A3003 RMK
AO2 SLP170 T02440233





000
SAUS41 KLWX 021038
MTRRSP
METAR KRSP 020954Z AUTO 10SM CLR 22/16 A3012 RMK AO2 SLP190
T02170156 $





000
SAUS41 KLWX 021038
MTRRSP
METAR KRSP 020954Z AUTO 10SM CLR 22/16 A3012 RMK AO2 SLP190
T02170156 $





000
SAUS41 KLWX 021034
MTRNAK
SPECI KNAK 021033Z AUTO 00000KT 4SM BR FEW009 SCT075 24/23 A3002 RMK
AO2 T02440233





000
SAUS41 KLWX 021000
MTRRYT
METAR KRYT 020953Z AUTO 23003KT 9SM CLR 19/17 A3006 RMK AO2 SLP165
T01940167 $





000
SAUS41 KLWX 020958
MTRDMH
METAR KDMH 020954Z AUTO 25/19 A3003 RMK AO1 SLP169 T02500189





000
SAUS41 KLWX 020955
MTRNAK
METAR KNAK 020954Z AUTO 00000KT 4SM BR FEW070 24/23 A3002 RMK AO2
SLP166 T02440233





000
SAUS41 KLWX 020938
MTRRSP
METAR KRSP 020854Z AUTO 10SM CLR 22/15 A3012 RMK AO2 SLP187
T02220150 56002 $





000
SAUS41 KLWX 020900
MTRRYT
METAR KRYT 020853Z AUTO 00000KT 9SM CLR 19/17 A3006 RMK AO2 SLP164
T01890167 55007 $





000
SAUS41 KLWX 020858
MTRDMH
METAR KDMH 020854Z AUTO 25/20 A3003 RMK AO1 SLP167 T02500200 55004





000
SAUS41 KLWX 020858
MTRDMH
METAR KDMH 020854Z AUTO 25/20 A3003 RMK AO1 SLP167 T02500200 55004





000
SAUS41 KLWX 020855
MTRNAK
METAR KNAK 020854Z AUTO 34003KT 5SM BR BKN080 25/24 A3001 RMK AO2
SLP164 T02500239 56006





000
SAUS41 KLWX 020855
MTRNAK
METAR KNAK 020854Z AUTO 34003KT 5SM BR BKN080 25/24 A3001 RMK AO2
SLP164 T02500239 56006





000
SAUS41 KLWX 020838
MTRRSP
METAR KRSP 020754Z AUTO 10SM CLR 23/16 A3012 RMK AO2 SLP187
T02280156 $





000
SAUS41 KLWX 020800
MTRRYT
METAR KRYT 020753Z AUTO 00000KT 9SM CLR 19/17 A3006 RMK AO2 SLP164
T01890167 $





000
SAUS41 KLWX 020758
MTRDMH
METAR KDMH 020754Z AUTO 26/20 A3002 RMK AO1 SLP166 T02560200





000
SAUS41 KLWX 020755
MTRNAK
METAR KNAK 020754Z AUTO 00000KT 4SM BR OVC070 25/24 A3001 RMK AO2
SLP164 T02500239





000
SAUS41 KLWX 020755
MTRNAK
METAR KNAK 020754Z AUTO 00000KT 4SM BR OVC070 25/24 A3001 RMK AO2
SLP164 T02500239





000
SAUS41 KLWX 020738
MTRRSP
METAR KRSP 020654Z AUTO 10SM CLR 22/16 A3012 RMK AO2 SLP186
T02220156 $





000
SAUS41 KLWX 020738
MTRRSP
METAR KRSP 020654Z AUTO 10SM CLR 22/16 A3012 RMK AO2 SLP186
T02220156 $





000
SAUS41 KLWX 020700
MTRRYT
METAR KRYT 020653Z AUTO 00000KT 9SM CLR 19/17 A3006 RMK AO2 SLP166
T01890167 $





000
SAUS41 KLWX 020700
MTRRYT
METAR KRYT 020653Z AUTO 00000KT 9SM CLR 19/17 A3006 RMK AO2 SLP166
T01890167 $





000
SAUS41 KLWX 020658
MTRDMH
METAR KDMH 020654Z AUTO 26/20 A3003 RMK AO1 SLP167 T02610200





000
SAUS41 KLWX 020658
MTRDMH
METAR KDMH 020654Z AUTO 26/20 A3003 RMK AO1 SLP167 T02610200





000
SAUS41 KLWX 020655
MTRNAK
METAR KNAK 020654Z AUTO 00000KT 4SM BR FEW070 24/23 A3002 RMK AO2
SLP166 T02440233





000
SAUS41 KLWX 020655
MTRNAK
METAR KNAK 020654Z AUTO 00000KT 4SM BR FEW070 24/23 A3002 RMK AO2
SLP166 T02440233





000
SAUS41 KLWX 020638
MTRRSP
METAR KRSP 020554Z AUTO 10SM SCT055 22/15 A3012 RMK AO2 SLP189
T02220150 10244 20222 58007 $





000
SAUS41 KLWX 020638
MTRRSP
METAR KRSP 020554Z AUTO 10SM SCT055 22/15 A3012 RMK AO2 SLP189
T02220150 10244 20222 58007 $





000
SAUS41 KLWX 020600
MTRRYT
METAR KRYT 020553Z AUTO 00000KT 10SM CLR 19/17 A3008 RMK AO2 SLP171
T01940167 10233 20194 58003 $





000
SAUS41 KLWX 020600
MTRRYT
METAR KRYT 020553Z AUTO 00000KT 10SM CLR 19/17 A3008 RMK AO2 SLP171
T01940167 10233 20194 58003 $





000
SAUS41 KLWX 020558
MTRDMH
METAR KDMH 020554Z AUTO 27/21 A3004 RMK AO1 SLP171 T02670206 10300
20267 58003





000
SAUS41 KLWX 020558
MTRDMH
METAR KDMH 020554Z AUTO 27/21 A3004 RMK AO1 SLP171 T02670206 10300
20267 58003





000
SAUS41 KLWX 020555
MTRNAK
METAR KNAK 020554Z AUTO 00000KT 5SM BR SCT080 25/24 A3003 RMK AO2
SLP170 T02500239 10278 20244 58004





000
SAUS41 KLWX 020555
MTRNAK
METAR KNAK 020554Z AUTO 00000KT 5SM BR SCT080 25/24 A3003 RMK AO2
SLP170 T02500239 10278 20244 58004





000
SAUS41 KLWX 020538
MTRRSP
METAR KRSP 020454Z AUTO 10SM OVC050 24/14 A3014 RMK AO2 SLP194
T02390144 403060206 $





000
SAUS41 KLWX 020500
MTRRYT
METAR KRYT 020453Z AUTO 00000KT 9SM FEW070 19/17 A3009 RMK AO2
SLP175 T01940172 403170194 $





000
SAUS41 KLWX 020500
MTRRYT
METAR KRYT 020453Z AUTO 00000KT 9SM FEW070 19/17 A3009 RMK AO2
SLP175 T01940172 403170194 $





000
SAUS41 KLWX 020458
MTRDMH
METAR KDMH 020454Z AUTO 28/20 A3005 RMK AO1 SLP175 T02780200
403390228





000
SAUS41 KLWX 020456
MTRNAK
METAR KNAK 020454Z AUTO 00000KT 6SM BR BKN075 24/23 A3004 RMK AO2
SLP174 T02440233 403000217





000
SAUS41 KLWX 020438
MTRRSP
METAR KRSP 020354Z AUTO 10SM BKN055 24/14 A3015 RMK AO2 SLP196
T02390144 $





000
SAUS41 KLWX 020438
MTRRSP
METAR KRSP 020354Z AUTO 10SM BKN055 24/14 A3015 RMK AO2 SLP196
T02390144 $





000
SAUS41 KLWX 020400
MTRRYT
METAR KRYT 020353Z AUTO 00000KT 9SM SCT065 19/17 A3009 RMK AO2
SLP176 T01940172 $





000
SAUS41 KLWX 020400
MTRRYT
METAR KRYT 020353Z AUTO 00000KT 9SM SCT065 19/17 A3009 RMK AO2
SLP176 T01940172 $





000
SAUS41 KLWX 020358
MTRDMH
METAR KDMH 020354Z AUTO 28/19 A3005 RMK AO1 SLP176 T02780194





000
SAUS41 KLWX 020355
MTRNAK
METAR KNAK 020354Z AUTO 00000KT 6SM BR CLR 25/23 A3004 RMK AO2
SLP175 T02500233





    US Dept of Commerce
    National Oceanic and Atmospheric Administration
    National Weather Service
    1325 East West Highway
    Silver Spring, MD 20910
    Page Author: NWS Internet Services Team
Disclaimer
Information Quality
Credits
Glossary
Privacy Policy
Freedom of Information Act (FOIA)
About Us
Career Opportunities